createdAt,value
2023-06-06T00:00:21.928Z,19.07
2023-06-06T00:02:50.633Z,19.00
2023-06-06T00:05:19.166Z,18.89
2023-06-06T00:07:46.973Z,18.84
2023-06-06T00:10:16.079Z,18.84
2023-06-06T00:12:45.725Z,18.81
2023-06-06T00:15:14.515Z,18.75
2023-06-06T00:17:46.020Z,18.75
2023-06-06T00:20:13.833Z,18.74
2023-06-06T00:22:41.631Z,18.69
2023-06-06T00:25:10.013Z,18.61
2023-06-06T00:27:37.772Z,18.52
2023-06-06T00:30:06.061Z,18.48
2023-06-06T00:32:32.695Z,18.45
2023-06-06T00:34:59.280Z,18.47
2023-06-06T00:37:26.923Z,18.42
2023-06-06T00:39:53.485Z,18.38
2023-06-06T00:42:20.056Z,18.37
2023-06-06T00:44:46.650Z,18.34
2023-06-06T00:47:13.535Z,18.31
2023-06-06T00:49:42.276Z,18.29
2023-06-06T00:52:10.605Z,18.28
2023-06-06T00:54:37.552Z,18.26
2023-06-06T00:57:05.893Z,18.24
2023-06-06T00:59:32.617Z,18.25
2023-06-06T01:02:00.040Z,18.27
2023-06-06T01:04:27.694Z,18.27
2023-06-06T01:06:54.443Z,18.21
2023-06-06T01:09:21.554Z,18.16
2023-06-06T01:11:52.542Z,18.15
2023-06-06T01:14:44.405Z,18.16
2023-06-06T01:17:13.444Z,18.13
2023-06-06T01:19:42.464Z,18.15
2023-06-06T01:22:14.360Z,18.14
2023-06-06T01:24:45.901Z,18.15
2023-06-06T01:27:12.524Z,18.18
2023-06-06T01:29:39.288Z,18.12
2023-06-06T01:32:09.762Z,18.13
2023-06-06T01:34:50.389Z,18.14
2023-06-06T01:37:32.568Z,18.05
2023-06-06T01:40:04.873Z,17.95
2023-06-06T01:42:37.458Z,17.93
2023-06-06T01:45:05.023Z,17.93
2023-06-06T01:47:32.912Z,17.95
2023-06-06T01:50:00.102Z,17.96
2023-06-06T01:52:29.329Z,17.96
2023-06-06T01:54:56.795Z,17.93
2023-06-06T01:57:23.527Z,17.82
2023-06-06T01:59:50.060Z,17.80
2023-06-06T02:02:18.278Z,17.79
2023-06-06T02:04:45.300Z,17.79
2023-06-06T02:07:13.448Z,17.74
2023-06-06T02:09:40.017Z,17.67
2023-06-06T02:12:07.076Z,17.63
2023-06-06T02:14:34.167Z,17.57
2023-06-06T02:17:01.913Z,17.52
2023-06-06T02:19:28.729Z,17.45
2023-06-06T02:21:55.661Z,17.46
2023-06-06T02:24:22.509Z,17.43
2023-06-06T02:26:49.190Z,17.41
2023-06-06T02:29:15.674Z,17.42
2023-06-06T02:31:42.233Z,17.38
2023-06-06T02:34:08.736Z,17.36
2023-06-06T02:36:36.383Z,17.29
2023-06-06T02:39:03.115Z,17.21
2023-06-06T02:41:29.656Z,17.17
2023-06-06T02:43:56.669Z,17.21
2023-06-06T02:46:25.279Z,17.24
2023-06-06T02:48:52.147Z,17.25
2023-06-06T02:51:21.290Z,17.20
2023-06-06T02:53:48.149Z,17.18
2023-06-06T02:56:15.546Z,17.17
2023-06-06T02:58:42.252Z,17.17
2023-06-06T03:01:11.053Z,17.14
2023-06-06T03:03:37.830Z,17.10
2023-06-06T03:06:05.268Z,17.03
2023-06-06T03:08:31.940Z,17.01
2023-06-06T03:10:58.535Z,17.01
2023-06-06T03:13:25.681Z,16.97
2023-06-06T03:15:52.315Z,16.92
2023-06-06T03:18:24.713Z,16.84
2023-06-06T03:20:55.320Z,16.83
2023-06-06T03:23:23.327Z,16.79
2023-06-06T03:25:50.510Z,16.82
2023-06-06T03:28:20.022Z,16.86
2023-06-06T03:30:47.215Z,16.86
2023-06-06T03:33:14.556Z,16.79
2023-06-06T03:35:41.826Z,16.77
2023-06-06T03:38:08.883Z,16.81
2023-06-06T03:40:35.620Z,16.83
2023-06-06T03:43:02.417Z,16.86
2023-06-06T03:45:30.561Z,16.85
2023-06-06T03:47:57.636Z,16.83
2023-06-06T03:50:24.611Z,16.81
2023-06-06T03:52:51.240Z,16.83
2023-06-06T03:55:17.912Z,16.86
2023-06-06T03:57:46.040Z,16.88
2023-06-06T04:00:14.555Z,16.84
2023-06-06T04:02:42.369Z,16.86
2023-06-06T04:05:10.072Z,16.82
2023-06-06T04:07:37.325Z,16.80
2023-06-06T04:10:05.869Z,16.82
2023-06-06T04:12:32.619Z,16.83
2023-06-06T04:14:59.223Z,16.83
2023-06-06T04:17:26.659Z,16.81
2023-06-06T04:19:54.222Z,16.82
2023-06-06T04:22:24.160Z,16.79
2023-06-06T04:24:50.690Z,16.70
2023-06-06T04:27:18.585Z,16.65
2023-06-06T04:29:45.758Z,16.63
2023-06-06T04:32:20.091Z,16.62
2023-06-06T04:34:48.266Z,16.68
2023-06-06T04:37:18.849Z,16.66
2023-06-06T04:39:45.837Z,16.72
2023-06-06T04:42:13.518Z,16.83
2023-06-06T04:44:42.889Z,16.79
2023-06-06T04:47:12.361Z,16.87
2023-06-06T04:49:41.116Z,16.99
2023-06-06T04:52:10.166Z,17.05
2023-06-06T04:54:40.988Z,17.08
2023-06-06T04:57:08.234Z,17.19
2023-06-06T04:59:34.980Z,17.28
2023-06-06T05:02:03.478Z,17.40
2023-06-06T05:04:32.867Z,17.52
2023-06-06T05:07:00.736Z,17.60
2023-06-06T05:09:28.037Z,17.68
2023-06-06T05:11:56.008Z,17.65
2023-06-06T05:14:26.462Z,17.56
2023-06-06T05:16:54.578Z,17.44
2023-06-06T05:19:22.078Z,17.36
2023-06-06T05:21:49.296Z,17.28
2023-06-06T05:24:16.543Z,17.27
2023-06-06T05:26:43.798Z,17.33
2023-06-06T05:29:10.960Z,17.33
2023-06-06T05:31:38.496Z,17.37
2023-06-06T05:34:05.240Z,17.66
2023-06-06T05:36:32.157Z,18.07
2023-06-06T05:38:58.992Z,18.40
2023-06-06T05:41:26.257Z,18.51
2023-06-06T05:43:53.233Z,18.63
2023-06-06T05:46:20.321Z,18.71
2023-06-06T05:48:47.043Z,18.76
2023-06-06T05:51:13.846Z,18.88
2023-06-06T05:53:49.425Z,18.89
2023-06-06T05:56:19.360Z,19.14
2023-06-06T05:58:51.038Z,19.36
2023-06-06T06:01:20.225Z,19.51
2023-06-06T06:03:50.019Z,19.54
2023-06-06T06:06:19.342Z,19.61
2023-06-06T06:08:49.967Z,19.70
2023-06-06T06:11:17.114Z,19.82
2023-06-06T06:13:44.350Z,19.93
2023-06-06T06:16:11.071Z,19.93
2023-06-06T06:18:37.603Z,19.93
2023-06-06T06:21:04.231Z,20.05
2023-06-06T06:23:31.004Z,20.20
2023-06-06T06:25:57.592Z,20.34
2023-06-06T06:28:26.316Z,20.44
2023-06-06T06:30:52.909Z,20.35
2023-06-06T06:33:19.643Z,20.40
2023-06-06T06:35:46.439Z,20.36
2023-06-06T06:38:14.481Z,20.34
2023-06-06T06:40:40.932Z,20.52
2023-06-06T06:43:07.396Z,20.71
2023-06-06T06:45:34.261Z,20.81
2023-06-06T06:48:02.754Z,20.79
2023-06-06T06:50:29.572Z,20.83
2023-06-06T06:52:57.616Z,20.97
2023-06-06T06:55:25.421Z,21.09
2023-06-06T06:57:54.834Z,21.10
2023-06-06T07:00:24.598Z,21.19
2023-06-06T07:02:55.569Z,21.15
2023-06-06T07:05:23.126Z,21.17
2023-06-06T07:07:56.082Z,21.39
2023-06-06T07:10:24.703Z,21.47
2023-06-06T07:12:53.391Z,21.53
2023-06-06T07:15:23.805Z,21.64
2023-06-06T07:17:54.417Z,21.76
2023-06-06T07:20:23.684Z,21.73
2023-06-06T07:22:55.140Z,21.68
2023-06-06T07:25:22.193Z,21.70
2023-06-06T07:27:49.084Z,21.92
2023-06-06T07:30:16.518Z,21.90
2023-06-06T07:32:45.841Z,21.86
2023-06-06T07:35:14.761Z,21.83
2023-06-06T07:37:42.111Z,21.98
2023-06-06T07:40:11.796Z,22.10
2023-06-06T07:42:40.262Z,22.11
2023-06-06T07:45:08.177Z,22.18
2023-06-06T07:47:34.740Z,22.21
2023-06-06T07:50:03.196Z,22.37
2023-06-06T07:52:32.031Z,22.41
2023-06-06T07:55:00.330Z,22.23
2023-06-06T07:57:28.231Z,22.39
2023-06-06T07:59:55.553Z,22.67
2023-06-06T08:02:22.296Z,22.87
2023-06-06T08:04:49.052Z,22.76
2023-06-06T08:07:16.671Z,22.69
2023-06-06T08:09:44.743Z,22.92
2023-06-06T08:12:12.408Z,23.04
2023-06-06T08:14:39.893Z,23.09
2023-06-06T08:17:07.867Z,23.28
2023-06-06T08:19:36.975Z,23.24
2023-06-06T08:22:03.871Z,23.31
2023-06-06T08:24:30.815Z,23.52
2023-06-06T08:26:58.905Z,23.67
2023-06-06T08:29:26.474Z,23.58
2023-06-06T08:31:55.353Z,23.54
2023-06-06T08:34:26.059Z,23.68
2023-06-06T08:36:52.643Z,23.43
2023-06-06T08:39:20.031Z,23.65
2023-06-06T08:41:51.914Z,23.84
2023-06-06T08:44:23.654Z,23.97
2023-06-06T08:46:56.318Z,24.05
2023-06-06T08:49:23.134Z,24.28
2023-06-06T08:51:51.630Z,24.39
2023-06-06T08:54:21.735Z,24.52
2023-06-06T08:56:49.045Z,24.40
2023-06-06T08:59:18.153Z,24.26
2023-06-06T09:01:47.174Z,24.27
2023-06-06T09:04:16.700Z,24.27
2023-06-06T09:06:47.472Z,24.33
2023-06-06T09:09:15.018Z,24.61
2023-06-06T09:11:41.871Z,24.72
2023-06-06T09:14:11.658Z,24.54
2023-06-06T09:16:40.712Z,24.58
2023-06-06T09:19:09.464Z,24.70
2023-06-06T09:21:37.652Z,24.71
2023-06-06T09:24:05.711Z,24.86
2023-06-06T09:26:35.406Z,24.98
2023-06-06T09:29:09.020Z,25.08
2023-06-06T09:31:40.243Z,25.26
2023-06-06T09:34:09.790Z,25.12
2023-06-06T09:36:42.157Z,25.24
2023-06-06T09:39:13.391Z,25.44
2023-06-06T09:41:50.066Z,25.34
2023-06-06T09:44:24.841Z,25.43
2023-06-06T09:46:59.377Z,25.28
2023-06-06T09:49:26.056Z,24.98
2023-06-06T09:51:55.666Z,24.72
2023-06-06T09:54:23.984Z,24.82
2023-06-06T09:56:51.617Z,24.97
2023-06-06T09:59:18.558Z,25.30
2023-06-06T10:01:46.623Z,25.49
2023-06-06T10:04:14.339Z,25.58
2023-06-06T10:06:44.701Z,25.66
2023-06-06T10:09:12.749Z,25.72
2023-06-06T10:11:40.624Z,25.80
2023-06-06T10:14:08.136Z,25.87
2023-06-06T10:16:36.596Z,25.91
2023-06-06T10:19:04.462Z,25.99
2023-06-06T10:21:32.322Z,26.06
2023-06-06T10:23:59.466Z,25.94
2023-06-06T10:26:34.818Z,25.87
2023-06-06T10:29:06.944Z,25.67
2023-06-06T10:32:05.346Z,25.63
2023-06-06T10:34:41.724Z,25.54
2023-06-06T10:37:23.680Z,25.48
2023-06-06T10:40:02.409Z,25.59
2023-06-06T10:42:45.159Z,25.30
2023-06-06T10:45:11.778Z,25.20
2023-06-06T10:47:48.197Z,25.25
2023-06-06T10:50:16.662Z,25.36
2023-06-06T10:52:59.736Z,25.80
2023-06-06T10:55:26.554Z,26.15
2023-06-06T10:58:05.501Z,26.38
2023-06-06T11:00:39.263Z,26.36
2023-06-06T11:03:14.306Z,26.72
2023-06-06T11:06:01.707Z,27.04
2023-06-06T11:08:36.462Z,27.06
2023-06-06T11:11:28.055Z,26.87
2023-06-06T11:13:59.811Z,26.98
2023-06-06T11:16:45.544Z,27.17
2023-06-06T11:19:18.374Z,27.29
2023-06-06T11:21:47.734Z,27.32
2023-06-06T11:24:18.615Z,27.43
2023-06-06T11:26:46.098Z,27.59
2023-06-06T11:29:13.359Z,27.36
2023-06-06T11:31:40.894Z,27.22
2023-06-06T11:34:08.248Z,26.54
2023-06-06T11:36:36.868Z,26.07
2023-06-06T11:39:08.853Z,26.32
2023-06-06T11:41:37.964Z,26.67
2023-06-06T11:44:04.887Z,26.53
2023-06-06T11:46:47.224Z,26.53
2023-06-06T11:49:14.111Z,26.37
2023-06-06T11:51:41.358Z,26.04
2023-06-06T11:54:19.133Z,25.75
2023-06-06T11:56:46.134Z,25.67
2023-06-06T11:59:15.935Z,26.22
2023-06-06T12:01:54.817Z,26.62
2023-06-06T12:04:22.525Z,26.31
2023-06-06T12:06:51.111Z,25.87
2023-06-06T12:09:19.541Z,25.50
2023-06-06T12:11:57.809Z,25.43
2023-06-06T12:14:28.440Z,26.11
2023-06-06T12:17:03.172Z,26.49
2023-06-06T12:19:30.154Z,27.05
2023-06-06T12:21:57.076Z,27.34
2023-06-06T12:24:25.912Z,27.15
2023-06-06T12:27:09.452Z,27.16
2023-06-06T12:29:37.711Z,27.31
2023-06-06T12:32:26.660Z,27.68
2023-06-06T12:35:06.440Z,27.26
2023-06-06T12:37:36.650Z,26.94
2023-06-06T12:40:09.876Z,27.22
2023-06-06T12:42:39.584Z,27.46
2023-06-06T12:45:08.834Z,27.66
2023-06-06T12:47:36.370Z,27.86
2023-06-06T12:50:03.452Z,28.02
2023-06-06T12:52:30.066Z,28.15
2023-06-06T12:54:56.527Z,28.18
2023-06-06T12:57:24.080Z,28.12
2023-06-06T12:59:50.772Z,28.15
2023-06-06T13:02:18.339Z,28.28
2023-06-06T13:04:46.653Z,28.16
2023-06-06T13:07:14.065Z,27.57
2023-06-06T13:09:40.831Z,26.86
2023-06-06T13:12:09.531Z,26.89
2023-06-06T13:14:40.237Z,26.77
2023-06-06T13:17:13.220Z,26.87
2023-06-06T13:19:41.277Z,27.18
2023-06-06T13:22:08.457Z,27.58
2023-06-06T13:24:34.997Z,28.03
2023-06-06T13:27:02.590Z,27.64
2023-06-06T13:29:29.310Z,26.99
2023-06-06T13:31:56.304Z,26.76
2023-06-06T13:34:22.942Z,26.79
2023-06-06T13:36:49.591Z,27.33
2023-06-06T13:39:16.396Z,27.57
2023-06-06T13:41:46.281Z,27.81
2023-06-06T13:44:20.243Z,28.03
2023-06-06T13:47:00.404Z,28.16
2023-06-06T13:49:28.399Z,28.20
2023-06-06T13:51:55.469Z,28.17
2023-06-06T13:54:22.770Z,27.63
2023-06-06T13:56:49.579Z,27.53
2023-06-06T13:59:17.490Z,27.40
2023-06-06T14:01:51.350Z,27.73
2023-06-06T14:04:18.258Z,27.79
2023-06-06T14:06:46.023Z,27.52
2023-06-06T14:09:15.791Z,27.09
2023-06-06T14:11:45.850Z,27.30
2023-06-06T14:14:12.738Z,27.60
2023-06-06T14:16:39.307Z,27.74
2023-06-06T14:19:06.259Z,27.41
2023-06-06T14:21:38.804Z,26.95
2023-06-06T14:24:08.945Z,26.57
2023-06-06T14:26:36.127Z,26.27
2023-06-06T14:29:02.721Z,26.12
2023-06-06T14:31:29.554Z,25.86
2023-06-06T14:33:56.446Z,26.29
2023-06-06T14:36:24.018Z,26.75
2023-06-06T14:38:50.797Z,27.02
2023-06-06T14:41:18.658Z,27.40
2023-06-06T14:43:45.916Z,27.74
2023-06-06T14:46:12.877Z,27.87
2023-06-06T14:48:40.901Z,27.91
2023-06-06T14:51:07.776Z,27.94
2023-06-06T14:53:34.606Z,27.73
2023-06-06T14:56:08.667Z,27.60
2023-06-06T14:58:36.305Z,27.42
2023-06-06T15:01:04.148Z,27.67
2023-06-06T15:03:30.934Z,27.88
2023-06-06T15:05:57.831Z,28.08
2023-06-06T15:08:24.669Z,28.25
2023-06-06T15:10:51.137Z,28.23
2023-06-06T15:13:17.705Z,28.23
2023-06-06T15:15:44.631Z,28.27
2023-06-06T15:18:12.526Z,28.37
2023-06-06T15:20:39.518Z,28.55
2023-06-06T15:23:08.261Z,28.43
2023-06-06T15:25:35.488Z,27.96
2023-06-06T15:28:02.795Z,27.72
2023-06-06T15:30:29.523Z,27.91
2023-06-06T15:32:56.494Z,28.15
2023-06-06T15:35:23.301Z,28.24
2023-06-06T15:37:50.077Z,27.89
2023-06-06T15:40:17.620Z,27.38
2023-06-06T15:42:44.384Z,26.89
2023-06-06T15:45:11.600Z,26.58
2023-06-06T15:47:38.433Z,26.50
2023-06-06T15:50:05.825Z,26.53
2023-06-06T15:52:32.320Z,26.61
2023-06-06T15:54:59.148Z,26.72
2023-06-06T15:57:26.176Z,26.63
2023-06-06T15:59:53.017Z,26.62
2023-06-06T16:02:19.763Z,27.00
2023-06-06T16:04:46.353Z,27.00
2023-06-06T16:07:13.977Z,27.21
2023-06-06T16:09:40.535Z,27.59
2023-06-06T16:12:08.232Z,27.91
2023-06-06T16:14:35.372Z,28.31
2023-06-06T16:17:01.966Z,28.23
2023-06-06T16:19:31.084Z,27.84
2023-06-06T16:21:58.065Z,28.00
2023-06-06T16:24:24.592Z,28.50
2023-06-06T16:26:51.771Z,28.13
2023-06-06T16:29:18.362Z,28.23
2023-06-06T16:31:45.196Z,29.11
2023-06-06T16:34:12.331Z,29.45
2023-06-06T16:36:39.900Z,29.89
2023-06-06T16:39:09.038Z,29.73
2023-06-06T16:41:37.605Z,29.08
2023-06-06T16:44:04.266Z,29.77
2023-06-06T16:46:31.007Z,30.57
2023-06-06T16:48:57.816Z,30.98
2023-06-06T16:51:24.574Z,31.33
2023-06-06T16:53:51.474Z,31.17
2023-06-06T16:56:18.091Z,30.93
2023-06-06T16:58:45.098Z,29.93
2023-06-06T17:01:11.820Z,28.94
2023-06-06T17:03:38.582Z,29.48
2023-06-06T17:06:05.487Z,30.01
2023-06-06T17:08:32.171Z,30.66
2023-06-06T17:10:58.952Z,31.20
2023-06-06T17:13:25.475Z,31.66
2023-06-06T17:15:52.244Z,31.90
2023-06-06T17:18:20.038Z,31.73
2023-06-06T17:20:47.084Z,31.77
2023-06-06T17:23:13.698Z,31.87
2023-06-06T17:28:09.901Z,30.23
2023-06-06T17:30:37.852Z,29.90
2023-06-06T17:33:04.641Z,30.02
2023-06-06T17:35:34.327Z,30.12
2023-06-06T17:38:00.932Z,29.86
2023-06-06T17:40:27.565Z,29.21
2023-06-06T17:42:54.880Z,29.78
2023-06-06T17:45:21.899Z,29.51
2023-06-06T17:47:48.385Z,28.19
2023-06-06T17:50:15.439Z,27.08
2023-06-06T17:52:42.722Z,26.20
2023-06-06T17:55:10.881Z,25.80
2023-06-06T17:57:37.327Z,25.50
2023-06-06T18:00:04.665Z,25.28
2023-06-06T18:02:31.763Z,25.02
2023-06-06T18:05:00.501Z,24.86
2023-06-06T18:07:28.998Z,24.73
2023-06-06T18:09:56.045Z,24.62
2023-06-06T18:12:23.416Z,24.48
2023-06-06T18:14:52.435Z,24.34
2023-06-06T18:17:20.001Z,24.26
2023-06-06T18:19:48.289Z,24.20
2023-06-06T18:22:17.080Z,24.12
2023-06-06T18:24:44.979Z,24.04
2023-06-06T18:27:12.032Z,23.96
2023-06-06T18:29:39.800Z,23.88
2023-06-06T18:32:06.900Z,23.82
2023-06-06T18:34:34.937Z,23.75
2023-06-06T18:37:01.696Z,23.68
2023-06-06T18:39:29.437Z,23.62
2023-06-06T18:41:56.427Z,23.56
2023-06-06T18:44:23.056Z,23.45
2023-06-06T18:46:50.027Z,23.34
2023-06-06T18:49:17.875Z,23.30
2023-06-06T18:51:49.118Z,23.20
2023-06-06T18:54:17.820Z,23.17
2023-06-06T18:56:44.725Z,23.12
2023-06-06T18:59:11.531Z,23.08
2023-06-06T19:01:39.228Z,23.03
2023-06-06T19:04:06.550Z,22.95
2023-06-06T19:06:35.042Z,22.88
2023-06-06T19:09:01.611Z,22.76
2023-06-06T19:11:29.425Z,22.66
2023-06-06T19:13:56.013Z,22.52
2023-06-06T19:16:22.913Z,22.56
2023-06-06T19:18:50.369Z,22.53
2023-06-06T19:21:23.163Z,22.53
2023-06-06T19:23:50.000Z,22.50
2023-06-06T19:26:18.922Z,22.49
2023-06-06T19:28:45.818Z,22.43
2023-06-06T19:31:13.838Z,22.33
2023-06-06T19:33:43.975Z,22.25
2023-06-06T19:36:10.760Z,22.16
2023-06-06T19:38:39.320Z,22.07
2023-06-06T19:41:05.932Z,22.02
2023-06-06T19:43:32.521Z,21.91
2023-06-06T19:45:59.420Z,21.84
2023-06-06T19:48:26.468Z,21.79
2023-06-06T19:50:53.717Z,21.78
2023-06-06T19:53:20.292Z,21.72
2023-06-06T19:55:47.976Z,21.67
2023-06-06T19:58:19.989Z,21.66
2023-06-06T20:00:50.440Z,21.64
2023-06-06T20:03:17.138Z,21.66
2023-06-06T20:05:43.769Z,21.65
2023-06-06T20:08:10.450Z,21.61
2023-06-06T20:10:37.472Z,21.55
2023-06-06T20:13:06.537Z,21.53
2023-06-06T20:15:33.310Z,21.49
2023-06-06T20:17:59.991Z,21.42
2023-06-06T20:20:27.190Z,21.36
2023-06-06T20:22:56.342Z,21.28
2023-06-06T20:25:23.963Z,21.23
2023-06-06T20:27:55.363Z,21.16
2023-06-06T20:30:23.120Z,21.07
2023-06-06T20:32:49.741Z,21.01
2023-06-06T20:35:16.688Z,20.94
2023-06-06T20:37:43.478Z,20.91
2023-06-06T20:40:24.600Z,20.89
2023-06-06T20:42:54.932Z,20.82
2023-06-06T20:45:23.878Z,20.74
2023-06-06T20:47:52.068Z,20.72
2023-06-06T20:50:19.882Z,20.75
2023-06-06T20:52:47.216Z,20.79
2023-06-06T20:55:13.968Z,20.77
2023-06-06T20:57:41.060Z,20.75
2023-06-06T21:00:08.447Z,20.73
2023-06-06T21:02:37.295Z,20.64
2023-06-06T21:05:04.449Z,20.55
2023-06-06T21:07:31.106Z,20.56
2023-06-06T21:09:57.637Z,20.47
2023-06-06T21:12:24.634Z,20.45
2023-06-06T21:14:51.430Z,20.40
2023-06-06T21:17:18.441Z,20.35
2023-06-06T21:19:45.232Z,20.33
2023-06-06T21:22:12.928Z,20.32
2023-06-06T21:24:41.843Z,20.30
2023-06-06T21:27:10.133Z,20.29
2023-06-06T21:29:37.163Z,20.26
2023-06-06T21:32:04.184Z,20.17
2023-06-06T21:34:31.163Z,20.13
2023-06-06T21:37:01.011Z,20.08
2023-06-06T21:39:29.653Z,20.07
2023-06-06T21:41:56.225Z,20.06
2023-06-06T21:44:22.704Z,20.02
2023-06-06T21:46:49.405Z,19.99
2023-06-06T21:49:20.774Z,19.97
2023-06-06T21:51:47.621Z,19.92
2023-06-06T21:54:14.304Z,19.89
2023-06-06T21:56:40.971Z,19.86
2023-06-06T21:59:07.552Z,19.80
2023-06-06T22:01:34.441Z,19.76
2023-06-06T22:04:01.302Z,19.74
2023-06-06T22:06:29.655Z,19.75
2023-06-06T22:08:56.327Z,19.69
2023-06-06T22:11:22.940Z,19.67
2023-06-06T22:13:49.643Z,19.63
2023-06-06T22:16:16.251Z,19.59
2023-06-06T22:18:42.890Z,19.56
2023-06-06T22:21:09.444Z,19.53
2023-06-06T22:23:36.045Z,19.52
2023-06-06T22:28:36.781Z,19.46
2023-06-06T22:31:03.402Z,19.44
2023-06-06T22:33:30.229Z,19.41
2023-06-06T22:35:56.834Z,19.36
2023-06-06T22:38:23.867Z,19.31
2023-06-06T22:40:50.686Z,19.24
2023-06-06T22:43:17.488Z,19.17
2023-06-06T22:45:44.295Z,19.12
2023-06-06T22:48:11.725Z,19.04
2023-06-06T22:50:38.456Z,19.01
2023-06-06T22:53:08.436Z,18.98
2023-06-06T22:55:35.301Z,18.96
2023-06-06T22:58:02.180Z,18.97
2023-06-06T23:00:28.722Z,18.90
2023-06-06T23:02:55.441Z,18.84
2023-06-06T23:05:23.865Z,18.84
2023-06-06T23:07:50.676Z,18.78
2023-06-06T23:10:18.007Z,18.78
2023-06-06T23:12:44.652Z,18.70
2023-06-06T23:15:13.052Z,18.65
2023-06-06T23:17:40.122Z,18.60
2023-06-06T23:20:09.773Z,18.53
2023-06-06T23:22:43.442Z,18.50
2023-06-06T23:25:11.580Z,18.49
2023-06-06T23:27:38.887Z,18.47
2023-06-06T23:30:07.056Z,18.48
2023-06-06T23:32:35.259Z,18.41
2023-06-06T23:35:02.116Z,18.29
2023-06-06T23:37:28.772Z,18.26
2023-06-06T23:39:55.392Z,18.30
2023-06-06T23:42:23.308Z,18.34
2023-06-06T23:44:49.839Z,18.31
2023-06-06T23:47:16.697Z,18.30
2023-06-06T23:49:43.497Z,18.23
2023-06-06T23:52:10.073Z,18.20
2023-06-06T23:54:36.928Z,18.23
2023-06-06T23:57:05.033Z,18.22
2023-06-06T23:59:32.087Z,18.21
